Kennedy, Minnesota
Current Conditions -  °F | °C
As of 3:35 PM on Thursday 18 Dec 2014 (Local Time) from KHCO Reporting Station
Clear Clear  
Wind Chill:   Ceiling: Unl
Heat Index: 19°   Visibility: 10mi
Dew Point: 16°   Wind: 13mph
Humidity: 86%   Direction: 160°SSE
Pressure: 30.18"   Gusts: NA
Location:  48.64°N, 96.91°W
Report Text: KHCO 182135Z AUTO 16011KT 10SM CLR M07/M09 A3018 RMK AO2
Loading
Personal Weather Stations






























Interactive Weather Map New forecast layout! Learn more

10-Day Weather Forecast

Advertisements
Track Severe Weather on mobile